Alamogordo, NM (88310)

5:33 PM MDT on July 27, 2016 (GMT -0600)
Alamogordo | | Change Station

Elev 4432 ft 32.91 °N, 105.94 °W | Updated 12 minutes ago

Clear
Clear
95.1 °F
Feels Like 94 °F
N
2.2
Wind Variable Wind from SSE

Today
High -- | Low -- °F
--% Chance of Precip.
Yesterday
High -- | Low -- °F
Precip. -- in
Pressure 30.03 in
Visibility 10.0 miles
Clouds Clear
Heat Index 94 °F
Dew Point 57 °F
Humidity 28%
Rainfall 0.18 in
Snow Depth Not available.
6:14 AM 8:05 PM
Last Quarter, 38% visible
METAR KALM 272315Z AUTO 20007G14KT 10SM CLR 33/12 A3003 RMK AO2
Pressure 30.03 in
Visibility 10.0 miles
Clouds Clear
Heat Index 94 °F
Dew Point 57 °F
Humidity 28%
Rainfall 0.18 in
Snow Depth Not available.
6:14 AM 8:05 PM
Last Quarter, 38% visible
METAR KALM 272315Z AUTO 20007G14KT 10SM CLR 33/12 A3003 RMK AO2

10-Day Weather Forecast

Almanac

Astronomy

Jul. 27, 2016 Rise Set
Actual Time
Civil Twilight
Nautical Twilight
Astronomical Twilight
Moon
Length of Visible Light
Length of Day
Tomorrow will be .
, % of the Moon is Illuminated

Today's Extremes

State Highs State Lows

Community

WunderPhotos

Upload Photos

1,927,957 photos uploaded!

WunderBlog® & News

Nearby

Air Quality

  Air Quality AQ Index Pollutant
Not available.

Snow Depth

Station Depth Elevation

Earthquake Activity

City Distance Mag. Time & Date
Minimum magnitude displayed is 2.5.

Coastal Water Temperatures

Place Temperature

Stations

Nearby Weather Stations

Station Location Temp. Windchill Dew Point Humidity Wind Precip. Elev Updated Type
                   

Watches & Warnings

There are currently no watches in effect.